sensor_id;sensor_type;location;lat;lon;timestamp;pressure;altitude;pressure_sealevel;temperature
18474;BMP180;30265;52.408;13.500;2023-03-23T00:07:28;100923.00;;;16.50
18474;BMP180;30265;52.408;13.500;2023-03-23T00:17:50;100903.00;;;16.40
18474;BMP180;30265;52.408;13.500;2023-03-23T00:28:11;100897.00;;;16.30
18474;BMP180;30265;52.408;13.500;2023-03-23T00:38:33;100889.00;;;16.10
18474;BMP180;30265;52.408;13.500;2023-03-23T00:48:55;100873.00;;;16.10
18474;BMP180;30265;52.408;13.500;2023-03-23T00:59:17;100872.00;;;16.00
18474;BMP180;30265;52.408;13.500;2023-03-23T01:09:38;100865.00;;;15.90
18474;BMP180;30265;52.408;13.500;2023-03-23T01:20:00;100843.00;;;15.80
18474;BMP180;30265;52.408;13.500;2023-03-23T01:30:24;100837.00;;;15.70
18474;BMP180;30265;52.408;13.500;2023-03-23T01:40:46;100837.00;;;15.50
18474;BMP180;30265;52.408;13.500;2023-03-23T01:51:09;100825.00;;;15.30
18474;BMP180;30265;52.408;13.500;2023-03-23T02:01:32;100811.00;;;15.30
18474;BMP180;30265;52.408;13.500;2023-03-23T02:11:56;100816.00;;;15.40
18474;BMP180;30265;52.408;13.500;2023-03-23T02:22:35;100807.00;;;15.30
18474;BMP180;30265;52.408;13.500;2023-03-23T02:44:04;100782.00;;;15.70
18474;BMP180;30265;52.408;13.500;2023-03-23T02:54:27;100791.00;;;15.90
18474;BMP180;30265;52.408;13.500;2023-03-23T03:04:54;100778.00;;;16.70
18474;BMP180;30265;52.408;13.500;2023-03-23T03:15:26;100761.00;;;17.00
18474;BMP180;30265;52.408;13.500;2023-03-23T03:25:49;100762.00;;;17.20
18474;BMP180;30265;52.408;13.500;2023-03-23T03:36:21;100753.00;;;17.20
18474;BMP180;30265;52.408;13.500;2023-03-23T03:46:43;100747.00;;;17.20
18474;BMP180;30265;52.408;13.500;2023-03-23T03:57:06;100736.00;;;17.20
18474;BMP180;30265;52.408;13.500;2023-03-23T04:07:27;100746.00;;;16.90
18474;BMP180;30265;52.408;13.500;2023-03-23T04:17:51;100748.00;;;16.70
18474;BMP180;30265;52.408;13.500;2023-03-23T04:28:12;100736.00;;;16.60
18474;BMP180;30265;52.408;13.500;2023-03-23T04:38:44;100734.00;;;16.40
18474;BMP180;30265;52.408;13.500;2023-03-23T04:49:14;100751.00;;;16.20
18474;BMP180;30265;52.408;13.500;2023-03-23T04:59:42;100766.00;;;16.30
18474;BMP180;30265;52.408;13.500;2023-03-23T05:10:10;100757.00;;;16.30
18474;BMP180;30265;52.408;13.500;2023-03-23T05:20:33;100764.00;;;16.40
18474;BMP180;30265;52.408;13.500;2023-03-23T05:31:02;100767.00;;;16.50
18474;BMP180;30265;52.408;13.500;2023-03-23T05:41:26;100777.00;;;16.40
18474;BMP180;30265;52.408;13.500;2023-03-23T05:51:47;100792.00;;;16.00
18474;BMP180;30265;52.408;13.500;2023-03-23T06:02:11;100806.00;;;15.80
18474;BMP180;30265;52.408;13.500;2023-03-23T06:12:34;100799.00;;;16.00
18474;BMP180;30265;52.408;13.500;2023-03-23T06:23:20;100819.00;;;15.80
18474;BMP180;30265;52.408;13.500;2023-03-23T06:33:41;100843.00;;;15.40
18474;BMP180;30265;52.408;13.500;2023-03-23T06:44:19;100844.00;;;15.40
18474;BMP180;30265;52.408;13.500;2023-03-23T06:54:40;100854.00;;;15.50
18474;BMP180;30265;52.408;13.500;2023-03-23T07:05:06;100852.00;;;15.70
18474;BMP180;30265;52.408;13.500;2023-03-23T07:15:28;100845.00;;;15.70
18474;BMP180;30265;52.408;13.500;2023-03-23T07:25:52;100857.00;;;15.70
18474;BMP180;30265;52.408;13.500;2023-03-23T07:36:18;100827.00;;;15.80
18474;BMP180;30265;52.408;13.500;2023-03-23T07:46:41;100836.00;;;15.90
18474;BMP180;30265;52.408;13.500;2023-03-23T07:57:08;100823.00;;;16.10
18474;BMP180;30265;52.408;13.500;2023-03-23T08:07:34;100777.00;;;16.10
18474;BMP180;30265;52.408;13.500;2023-03-23T08:18:21;100787.00;;;16.40
18474;BMP180;30265;52.408;13.500;2023-03-23T08:29:13;100814.00;;;16.70
18474;BMP180;30265;52.408;13.500;2023-03-23T08:39:44;100816.00;;;16.70
18474;BMP180;30265;52.408;13.500;2023-03-23T08:50:24;100832.00;;;16.90
18474;BMP180;30265;52.408;13.500;2023-03-23T09:00:51;100791.00;;;17.10
18474;BMP180;30265;52.408;13.500;2023-03-23T09:11:42;100807.00;;;17.40
18474;BMP180;30265;52.408;13.500;2023-03-23T09:22:03;100812.00;;;17.50
18474;BMP180;30265;52.408;13.500;2023-03-23T09:32:25;100802.00;;;17.90
18474;BMP180;30265;52.408;13.500;2023-03-23T09:42:55;100802.00;;;18.10
18474;BMP180;30265;52.408;13.500;2023-03-23T09:53:21;100807.00;;;18.50
18474;BMP180;30265;52.408;13.500;2023-03-23T10:03:43;100803.00;;;19.20
18474;BMP180;30265;52.408;13.500;2023-03-23T10:14:16;100813.00;;;18.90
18474;BMP180;30265;52.408;13.500;2023-03-23T10:24:44;100796.00;;;19.00
18474;BMP180;30265;52.408;13.500;2023-03-23T10:35:14;100775.00;;;19.30
18474;BMP180;30265;52.408;13.500;2023-03-23T10:45:37;100782.00;;;19.30
18474;BMP180;30265;52.408;13.500;2023-03-23T10:55:59;100776.00;;;19.20
18474;BMP180;30265;52.408;13.500;2023-03-23T11:06:22;100788.00;;;19.30
18474;BMP180;30265;52.408;13.500;2023-03-23T11:16:46;100800.00;;;19.50
18474;BMP180;30265;52.408;13.500;2023-03-23T11:27:10;100791.00;;;19.70
18474;BMP180;30265;52.408;13.500;2023-03-23T11:37:35;100786.00;;;19.80
18474;BMP180;30265;52.408;13.500;2023-03-23T11:48:01;100794.00;;;19.90
18474;BMP180;30265;52.408;13.500;2023-03-23T11:58:24;100792.00;;;20.40
18474;BMP180;30265;52.408;13.500;2023-03-23T12:09:02;100784.00;;;20.40
18474;BMP180;30265;52.408;13.500;2023-03-23T12:19:33;100781.00;;;20.70
18474;BMP180;30265;52.408;13.500;2023-03-23T12:30:10;100786.00;;;20.60
18474;BMP180;30265;52.408;13.500;2023-03-23T12:40:44;100792.00;;;20.70
18474;BMP180;30265;52.408;13.500;2023-03-23T12:51:14;100775.00;;;20.60
18474;BMP180;30265;52.408;13.500;2023-03-23T13:01:43;100746.00;;;20.90
18474;BMP180;30265;52.408;13.500;2023-03-23T13:12:08;100771.00;;;21.10
18474;BMP180;30265;52.408;13.500;2023-03-23T13:22:31;100761.00;;;21.70
18474;BMP180;30265;52.408;13.500;2023-03-23T13:33:02;100732.00;;;21.30
18474;BMP180;30265;52.408;13.500;2023-03-23T13:43:29;100728.00;;;21.60
18474;BMP180;30265;52.408;13.500;2023-03-23T13:53:51;100704.00;;;21.90
18474;BMP180;30265;52.408;13.500;2023-03-23T14:04:16;100736.00;;;21.30
18474;BMP180;30265;52.408;13.500;2023-03-23T14:14:40;100746.00;;;21.70
18474;BMP180;30265;52.408;13.500;2023-03-23T14:25:11;100707.00;;;22.60
18474;BMP180;30265;52.408;13.500;2023-03-23T14:35:34;100739.00;;;21.10
18474;BMP180;30265;52.408;13.500;2023-03-23T14:46:00;100728.00;;;20.80
18474;BMP180;30265;52.408;13.500;2023-03-23T14:56:22;100740.00;;;20.60
18474;BMP180;30265;52.408;13.500;2023-03-23T15:06:50;100744.00;;;20.50
18474;BMP180;30265;52.408;13.500;2023-03-23T15:17:18;100747.00;;;21.00
18474;BMP180;30265;52.408;13.500;2023-03-23T15:27:42;100752.00;;;20.80
18474;BMP180;30265;52.408;13.500;2023-03-23T15:38:05;100730.00;;;21.50
18474;BMP180;30265;52.408;13.500;2023-03-23T15:48:27;100697.00;;;21.70
18474;BMP180;30265;52.408;13.500;2023-03-23T15:58:48;100728.00;;;21.10
18474;BMP180;30265;52.408;13.500;2023-03-23T16:09:14;100759.00;;;21.00
18474;BMP180;30265;52.408;13.500;2023-03-23T16:19:37;100786.00;;;20.70
18474;BMP180;30265;52.408;13.500;2023-03-23T16:30:13;100802.00;;;20.70
18474;BMP180;30265;52.408;13.500;2023-03-23T16:40:35;100785.00;;;20.60
18474;BMP180;30265;52.408;13.500;2023-03-23T16:50:59;100813.00;;;20.30
18474;BMP180;30265;52.408;13.500;2023-03-23T17:01:20;100844.00;;;20.10
18474;BMP180;30265;52.408;13.500;2023-03-23T17:11:43;100851.00;;;20.00
18474;BMP180;30265;52.408;13.500;2023-03-23T17:22:05;100853.00;;;19.90
18474;BMP180;30265;52.408;13.500;2023-03-23T17:32:28;100871.00;;;19.70
18474;BMP180;30265;52.408;13.500;2023-03-23T17:42:50;100892.00;;;19.50
18474;BMP180;30265;52.408;13.500;2023-03-23T17:53:14;100947.00;;;18.70
18474;BMP180;30265;52.408;13.500;2023-03-23T18:03:37;100931.00;;;17.80
18474;BMP180;30265;52.408;13.500;2023-03-23T18:14:00;100928.00;;;17.60
18474;BMP180;30265;52.408;13.500;2023-03-23T18:24:21;100938.00;;;17.60
18474;BMP180;30265;52.408;13.500;2023-03-23T18:34:45;100960.00;;;17.40
18474;BMP180;30265;52.408;13.500;2023-03-23T18:45:07;100992.00;;;17.40
18474;BMP180;30265;52.408;13.500;2023-03-23T18:55:31;101003.00;;;17.20
18474;BMP180;30265;52.408;13.500;2023-03-23T19:05:56;101008.00;;;17.00
18474;BMP180;30265;52.408;13.500;2023-03-23T19:16:19;100995.00;;;16.90
18474;BMP180;30265;52.408;13.500;2023-03-23T19:26:42;101012.00;;;16.80
18474;BMP180;30265;52.408;13.500;2023-03-23T19:37:06;101008.00;;;16.80
18474;BMP180;30265;52.408;13.500;2023-03-23T19:47:30;101015.00;;;16.70
18474;BMP180;30265;52.408;13.500;2023-03-23T19:57:54;101002.00;;;16.70
18474;BMP180;30265;52.408;13.500;2023-03-23T20:08:15;101000.00;;;16.80
18474;BMP180;30265;52.408;13.500;2023-03-23T20:18:38;100997.00;;;16.80
18474;BMP180;30265;52.408;13.500;2023-03-23T20:29:01;101000.00;;;16.80
18474;BMP180;30265;52.408;13.500;2023-03-23T20:39:26;100985.00;;;16.80
18474;BMP180;30265;52.408;13.500;2023-03-23T20:49:49;100985.00;;;16.80
18474;BMP180;30265;52.408;13.500;2023-03-23T21:00:14;100988.00;;;16.70
18474;BMP180;30265;52.408;13.500;2023-03-23T21:10:38;100993.00;;;16.60
18474;BMP180;30265;52.408;13.500;2023-03-23T21:21:02;100981.00;;;16.70
18474;BMP180;30265;52.408;13.500;2023-03-23T21:31:29;100964.00;;;16.50
18474;BMP180;30265;52.408;13.500;2023-03-23T21:41:54;100958.00;;;16.20
18474;BMP180;30265;52.408;13.500;2023-03-23T21:52:15;100958.00;;;15.90
18474;BMP180;30265;52.408;13.500;2023-03-23T22:02:39;100957.00;;;15.70
18474;BMP180;30265;52.408;13.500;2023-03-23T22:13:01;100960.00;;;15.50
18474;BMP180;30265;52.408;13.500;2023-03-23T22:23:24;100937.00;;;15.40
18474;BMP180;30265;52.408;13.500;2023-03-23T22:33:47;100940.00;;;15.30
18474;BMP180;30265;52.408;13.500;2023-03-23T22:44:12;100926.00;;;15.20
18474;BMP180;30265;52.408;13.500;2023-03-23T22:54:34;100920.00;;;15.00
18474;BMP180;30265;52.408;13.500;2023-03-23T23:04:57;100912.00;;;15.10
18474;BMP180;30265;52.408;13.500;2023-03-23T23:15:19;100902.00;;;15.20
18474;BMP180;30265;52.408;13.500;2023-03-23T23:25:43;100888.00;;;15.40
18474;BMP180;30265;52.408;13.500;2023-03-23T23:36:06;100886.00;;;15.40
18474;BMP180;30265;52.408;13.500;2023-03-23T23:46:31;100881.00;;;15.40
18474;BMP180;30265;52.408;13.500;2023-03-23T23:56:53;100844.00;;;15.40
